createdAt,value
2023-09-22T00:01:21.449Z,99249.91
2023-09-22T00:03:49.779Z,99248.28
2023-09-22T00:06:19.197Z,99257.53
2023-09-22T00:08:47.259Z,99255.66
2023-09-22T00:11:15.255Z,99253.41
2023-09-22T00:13:44.823Z,99249.28
2023-09-22T00:16:12.911Z,99251.94
2023-09-22T00:18:40.848Z,99249.50
2023-09-22T00:21:09.880Z,99249.72
2023-09-22T00:23:37.864Z,99241.69
2023-09-22T00:26:05.860Z,99238.25
2023-09-22T00:28:34.076Z,99231.66
2023-09-22T00:31:04.028Z,99240.91
2023-09-22T00:33:32.135Z,99263.69
2023-09-22T00:36:03.298Z,99264.69
2023-09-22T00:38:31.983Z,99269.41
2023-09-22T00:41:00.805Z,99275.75
2023-09-22T00:43:28.871Z,99273.50
2023-09-22T00:45:56.941Z,99285.00
2023-09-22T00:48:30.745Z,99277.84
2023-09-22T00:50:59.499Z,99277.22
2023-09-22T00:53:29.524Z,99286.03
2023-09-22T00:55:58.756Z,99274.75
2023-09-22T00:58:26.734Z,99267.94
2023-09-22T01:00:55.864Z,99284.16
2023-09-22T01:03:25.333Z,99281.75
2023-09-22T01:05:54.927Z,99270.25
2023-09-22T01:08:23.163Z,99270.88
2023-09-22T01:10:51.338Z,99258.78
2023-09-22T01:13:20.693Z,99264.50
2023-09-22T01:15:48.923Z,99267.59
2023-09-22T01:18:17.138Z,99264.72
2023-09-22T01:20:46.119Z,99272.31
2023-09-22T01:23:15.975Z,99279.88
2023-09-22T01:25:45.039Z,99272.72
2023-09-22T01:28:15.229Z,99282.75
2023-09-22T01:30:43.907Z,99281.72
2023-09-22T01:33:12.025Z,99275.78
2023-09-22T01:35:40.154Z,99277.66
2023-09-22T01:38:13.348Z,99278.66
2023-09-22T01:40:43.522Z,99280.09
2023-09-22T01:43:12.417Z,99275.75
2023-09-22T01:45:40.658Z,99282.16
2023-09-22T01:48:09.910Z,99295.06
2023-09-22T01:50:38.891Z,99297.50
2023-09-22T01:53:07.130Z,99302.63
2023-09-22T01:55:35.103Z,99301.19
2023-09-22T01:58:05.369Z,99303.44
2023-09-22T02:00:34.384Z,99308.56
2023-09-22T02:03:03.058Z,99309.16
2023-09-22T02:05:31.844Z,99300.31
2023-09-22T02:08:01.108Z,99300.34
2023-09-22T02:10:29.245Z,99307.31
2023-09-22T02:12:57.846Z,99314.06
2023-09-22T02:15:27.401Z,99307.91
2023-09-22T02:17:55.996Z,99308.75
2023-09-22T02:20:24.348Z,99310.19
2023-09-22T02:22:56.500Z,99309.97
2023-09-22T02:25:25.466Z,99309.16
2023-09-22T02:27:55.804Z,99312.00
2023-09-22T02:30:24.821Z,99318.75
2023-09-22T02:32:56.315Z,99320.16
2023-09-22T02:35:24.856Z,99325.09
2023-09-22T02:37:53.004Z,99331.66
2023-09-22T02:40:21.189Z,99330.03
2023-09-22T02:42:49.480Z,99326.19
2023-09-22T02:45:18.044Z,99328.81
2023-09-22T02:47:46.158Z,99342.97
2023-09-22T02:50:19.835Z,99349.69
2023-09-22T02:52:48.640Z,99356.06
2023-09-22T02:55:17.954Z,99356.06
2023-09-22T02:57:48.105Z,99362.00
2023-09-22T03:00:19.242Z,99358.94
2023-09-22T03:02:48.035Z,99366.38
2023-09-22T03:05:18.671Z,99369.09
2023-09-22T03:07:52.065Z,99372.50
2023-09-22T03:10:21.245Z,99377.50
2023-09-22T03:12:52.775Z,99378.75
2023-09-22T03:15:21.627Z,99381.47
2023-09-22T03:17:49.913Z,99379.31
2023-09-22T03:20:19.630Z,99379.47
2023-09-22T03:22:48.264Z,99378.28
2023-09-22T03:25:18.265Z,99385.28
2023-09-22T03:27:46.303Z,99389.63
2023-09-22T03:30:18.473Z,99391.03
2023-09-22T03:32:46.886Z,99391.25
2023-09-22T03:35:18.076Z,99401.72
2023-09-22T03:37:50.268Z,99412.16
2023-09-22T03:40:24.238Z,99411.19
2023-09-22T03:42:52.594Z,99427.56
2023-09-22T03:45:20.817Z,99428.19
2023-09-22T03:47:49.417Z,99436.59
2023-09-22T03:50:18.347Z,99455.22
2023-09-22T03:52:49.613Z,99459.53
2023-09-22T03:55:17.602Z,99465.00
2023-09-22T03:57:46.023Z,99474.22
2023-09-22T04:00:19.510Z,99483.00
2023-09-22T04:02:49.344Z,99474.34
2023-09-22T04:05:17.931Z,99471.25
2023-09-22T04:07:47.354Z,99485.38
2023-09-22T04:10:16.815Z,99472.66
2023-09-22T04:12:45.484Z,99488.22
2023-09-22T04:15:13.486Z,99492.25
2023-09-22T04:17:41.823Z,99482.78
2023-09-22T04:20:15.008Z,99489.28
2023-09-22T04:22:44.801Z,99480.69
2023-09-22T04:25:20.135Z,99493.34
2023-09-22T04:27:55.181Z,99483.97
2023-09-22T04:30:25.672Z,99482.16
2023-09-22T04:32:54.405Z,99480.34
2023-09-22T04:35:22.964Z,99470.94
2023-09-22T04:37:51.842Z,99459.19
2023-09-22T04:40:25.724Z,99455.50
2023-09-22T04:42:54.659Z,99435.78
2023-09-22T04:45:24.388Z,99434.94
2023-09-22T04:47:53.726Z,99434.56
2023-09-22T04:50:22.361Z,99429.06
2023-09-22T04:52:51.544Z,99435.97
2023-09-22T04:55:21.677Z,99449.59
2023-09-22T04:57:50.097Z,99473.19
2023-09-22T05:00:19.474Z,99481.25
2023-09-22T05:02:47.790Z,99488.63
2023-09-22T05:05:18.067Z,99512.78
2023-09-22T05:07:46.188Z,99512.53
2023-09-22T05:10:14.725Z,99518.28
2023-09-22T05:12:44.234Z,99511.97
2023-09-22T05:15:12.452Z,99499.25
2023-09-22T05:17:40.455Z,99492.97
2023-09-22T05:20:13.474Z,99484.84
2023-09-22T05:22:42.133Z,99489.84
2023-09-22T05:25:10.991Z,99496.47
2023-09-22T05:27:40.671Z,99491.41
2023-09-22T05:30:14.249Z,99499.94
2023-09-22T05:32:44.277Z,99491.69
2023-09-22T05:35:12.415Z,99500.50
2023-09-22T05:37:40.398Z,99507.56
2023-09-22T05:40:13.890Z,99516.44
2023-09-22T05:42:43.768Z,99524.88
2023-09-22T05:45:13.673Z,99542.31
2023-09-22T05:47:41.960Z,99548.63
2023-09-22T05:50:12.520Z,99561.81
2023-09-22T05:52:43.672Z,99570.72
2023-09-22T05:55:13.362Z,99580.28
2023-09-22T05:57:41.983Z,99603.75
2023-09-22T06:00:16.676Z,99609.28
2023-09-22T06:02:51.350Z,99621.91
2023-09-22T06:05:20.050Z,99627.88
2023-09-22T06:07:47.973Z,99623.84
2023-09-22T06:10:15.992Z,99637.63
2023-09-22T06:12:44.042Z,99653.38
2023-09-22T06:15:13.634Z,99644.91
2023-09-22T06:17:41.876Z,99642.09
2023-09-22T06:20:14.423Z,99642.38
2023-09-22T06:22:45.433Z,99640.81
2023-09-22T06:25:14.957Z,99638.25
2023-09-22T06:27:43.828Z,99627.50
2023-09-22T06:30:13.564Z,99628.25
2023-09-22T06:32:43.646Z,99624.84
2023-09-22T06:35:14.165Z,99636.22
2023-09-22T06:37:43.572Z,99650.88
2023-09-22T06:40:17.709Z,99633.13
2023-09-22T06:42:46.780Z,99651.34
2023-09-22T06:45:17.161Z,99656.19
2023-09-22T06:47:46.998Z,99652.34
2023-09-22T06:50:16.719Z,99639.25
2023-09-22T06:52:44.748Z,99634.63
2023-09-22T06:55:15.790Z,99639.88
2023-09-22T06:58:34.530Z,99635.09
2023-09-22T07:01:12.063Z,99646.16
2023-09-22T07:03:40.700Z,99663.59
2023-09-22T07:06:14.347Z,99670.44
2023-09-22T07:08:44.824Z,99682.38
2023-09-22T07:11:13.021Z,99674.56
2023-09-22T07:13:42.476Z,99666.94
2023-09-22T07:16:11.221Z,99663.97
2023-09-22T07:18:41.994Z,99676.31
2023-09-22T07:21:11.978Z,99693.63
2023-09-22T07:23:41.141Z,99704.31
2023-09-22T07:26:12.588Z,99699.69
2023-09-22T07:28:41.601Z,99702.34
2023-09-22T07:31:13.628Z,99703.81
2023-09-22T07:33:42.249Z,99704.47
2023-09-22T07:36:12.796Z,99696.78
2023-09-22T07:38:41.298Z,99693.97
2023-09-22T07:41:09.422Z,99701.50
2023-09-22T07:43:37.567Z,99723.31
2023-09-22T07:46:08.236Z,99737.31
2023-09-22T07:48:38.969Z,99741.63
2023-09-22T07:51:07.681Z,99742.94
2023-09-22T07:53:37.752Z,99743.94
2023-09-22T07:56:05.974Z,99740.09
2023-09-22T07:58:33.963Z,99745.22
2023-09-22T08:01:02.038Z,99753.84
2023-09-22T08:03:30.668Z,99752.19
2023-09-22T08:05:58.911Z,99766.75
2023-09-22T08:08:26.929Z,99758.16
2023-09-22T08:10:56.679Z,99752.72
2023-09-22T08:13:24.864Z,99753.47
2023-09-22T08:15:53.414Z,99739.25
2023-09-22T08:18:21.510Z,99744.31
2023-09-22T08:20:49.475Z,99751.81
2023-09-22T08:23:17.483Z,99764.00
2023-09-22T08:25:45.906Z,99779.69
2023-09-22T08:28:15.905Z,99775.22
2023-09-22T08:30:44.175Z,99772.81
2023-09-22T08:33:12.315Z,99788.59
2023-09-22T08:35:53.424Z,99802.06
2023-09-22T08:38:30.203Z,99804.06
2023-09-22T08:40:59.657Z,99805.28
2023-09-22T08:43:31.456Z,99807.75
2023-09-22T08:46:00.766Z,99801.34
2023-09-22T08:48:30.376Z,99806.41
2023-09-22T08:50:58.871Z,99814.63
2023-09-22T08:53:26.984Z,99820.59
2023-09-22T08:55:54.992Z,99815.47
2023-09-22T08:58:22.995Z,99822.97
2023-09-22T09:00:55.088Z,99821.53
2023-09-22T09:03:23.426Z,99825.47
2023-09-22T09:05:51.712Z,99819.97
2023-09-22T09:08:22.638Z,99830.97
2023-09-22T09:10:51.372Z,99827.66
2023-09-22T09:13:21.278Z,99829.03
2023-09-22T09:15:51.423Z,99821.97
2023-09-22T09:18:22.497Z,99826.72
2023-09-22T09:21:07.235Z,99835.81
2023-09-22T09:23:38.212Z,99836.94
2023-09-22T09:26:07.094Z,99832.53
2023-09-22T09:28:42.258Z,99841.06
2023-09-22T09:31:11.708Z,99853.81
2023-09-22T09:33:52.280Z,99855.63
2023-09-22T09:36:20.607Z,99858.47
2023-09-22T09:38:48.647Z,99858.75
2023-09-22T09:41:19.795Z,99855.44
2023-09-22T09:43:49.371Z,99865.50
2023-09-22T09:46:18.828Z,99858.38
2023-09-22T09:48:49.325Z,99851.41
2023-09-22T09:51:21.509Z,99852.59
2023-09-22T09:53:53.601Z,99862.31
2023-09-22T09:56:22.895Z,99872.22
2023-09-22T09:58:51.970Z,99866.16
2023-09-22T10:01:20.761Z,99870.91
2023-09-22T10:03:52.932Z,99870.72
2023-09-22T10:08:51.805Z,99863.50
2023-09-22T10:11:20.385Z,99865.63
2023-09-22T10:13:48.554Z,99859.47
2023-09-22T10:16:30.149Z,99850.78
2023-09-22T10:19:00.734Z,99851.78
2023-09-22T10:21:46.600Z,99855.81
2023-09-22T10:24:20.564Z,99861.41
2023-09-22T10:27:10.175Z,99856.25
2023-09-22T10:29:43.795Z,99857.84
2023-09-22T10:32:27.518Z,99861.16
2023-09-22T10:34:59.422Z,99860.97
2023-09-22T10:37:29.304Z,99851.41
2023-09-22T10:40:00.011Z,99849.66
2023-09-22T10:42:29.376Z,99850.31
2023-09-22T10:45:02.981Z,99860.03
2023-09-22T10:47:41.349Z,99861.06
2023-09-22T10:50:16.080Z,99865.66
2023-09-22T10:52:53.055Z,99870.41
2023-09-22T10:55:35.745Z,99882.84
2023-09-22T10:58:06.556Z,99886.25
2023-09-22T11:00:37.770Z,99887.91
2023-09-22T11:03:07.908Z,99879.00
2023-09-22T11:05:37.415Z,99865.34
2023-09-22T11:08:13.748Z,99862.22
2023-09-22T11:10:43.395Z,99853.78
2023-09-22T11:13:11.893Z,99859.03
2023-09-22T11:15:48.674Z,99858.91
2023-09-22T11:18:21.681Z,99860.03
2023-09-22T11:20:56.938Z,99861.16
2023-09-22T11:23:25.701Z,99863.63
2023-09-22T11:26:01.687Z,99862.88
2023-09-22T11:28:29.998Z,99847.03
2023-09-22T11:31:07.698Z,99847.84
2023-09-22T11:33:37.256Z,99843.47
2023-09-22T11:36:08.141Z,99849.22
2023-09-22T11:38:41.129Z,99849.22
2023-09-22T11:41:11.906Z,99850.88
2023-09-22T11:43:41.816Z,99852.06
2023-09-22T11:46:12.876Z,99857.84
2023-09-22T11:48:54.687Z,99864.91
2023-09-22T11:51:24.115Z,99874.34
2023-09-22T11:53:52.645Z,99887.22
2023-09-22T11:56:20.684Z,99880.97
2023-09-22T11:58:48.768Z,99888.22
2023-09-22T12:01:17.055Z,99898.88
2023-09-22T12:03:45.545Z,99898.56
2023-09-22T12:06:16.255Z,99907.66
2023-09-22T12:08:46.041Z,99901.91
2023-09-22T12:11:14.300Z,99903.19
2023-09-22T12:13:44.384Z,99912.81
2023-09-22T12:16:12.893Z,99906.28
2023-09-22T12:18:41.042Z,99911.91
2023-09-22T12:21:09.130Z,99905.13
2023-09-22T12:23:37.279Z,99898.56
2023-09-22T12:26:06.753Z,99904.00
2023-09-22T12:28:34.837Z,99905.44
2023-09-22T12:31:03.490Z,99912.06
2023-09-22T12:33:31.621Z,99915.41
2023-09-22T12:35:59.618Z,99916.47
2023-09-22T12:38:29.929Z,99924.13
2023-09-22T12:40:58.466Z,99938.81
2023-09-22T12:43:27.936Z,99932.09
2023-09-22T12:46:05.102Z,99945.16
2023-09-22T12:48:34.847Z,99943.94
2023-09-22T12:51:02.821Z,99948.78
2023-09-22T12:53:31.044Z,99949.47
2023-09-22T12:55:59.042Z,99952.53
2023-09-22T12:58:29.425Z,99950.72
2023-09-22T13:00:58.458Z,99946.94
2023-09-22T13:03:27.903Z,99957.03
2023-09-22T13:05:58.373Z,99939.31
2023-09-22T13:08:29.863Z,99939.44
2023-09-22T13:10:58.584Z,99929.03
2023-09-22T13:13:29.865Z,99934.56
2023-09-22T13:15:58.007Z,99935.50
2023-09-22T13:18:26.241Z,99934.84
2023-09-22T13:20:54.431Z,99934.00
2023-09-22T13:23:22.534Z,99927.38
2023-09-22T13:25:51.381Z,99929.69
2023-09-22T13:28:19.792Z,99934.63
2023-09-22T13:30:55.761Z,99925.53
2023-09-22T13:33:27.089Z,99922.50
2023-09-22T13:35:56.671Z,99930.31
2023-09-22T13:38:24.984Z,99920.56
2023-09-22T13:40:53.975Z,99921.25
2023-09-22T13:43:23.774Z,99915.75
2023-09-22T13:45:54.651Z,99908.13
2023-09-22T13:48:22.647Z,99916.31
2023-09-22T13:50:53.112Z,99915.25
2023-09-22T13:53:21.181Z,99919.84
2023-09-22T13:55:50.340Z,99922.41
2023-09-22T13:58:18.559Z,99923.19
2023-09-22T14:00:47.230Z,99925.56
2023-09-22T14:03:16.925Z,99912.81
2023-09-22T14:05:45.007Z,99911.22
2023-09-22T14:08:16.075Z,99923.28
2023-09-22T14:10:44.354Z,99917.75
2023-09-22T14:13:12.902Z,99912.00
2023-09-22T14:15:41.432Z,99913.19
2023-09-22T14:18:09.623Z,99913.41
2023-09-22T14:20:41.997Z,99922.53
2023-09-22T14:23:10.157Z,99920.13
2023-09-22T14:25:38.545Z,99920.47
2023-09-22T14:28:07.616Z,99924.13
2023-09-22T14:30:38.459Z,99927.25
2023-09-22T14:33:07.143Z,99931.25
2023-09-22T14:35:39.502Z,99947.88
2023-09-22T14:38:07.671Z,99953.31
2023-09-22T14:40:38.651Z,99944.53
2023-09-22T14:43:06.728Z,99928.56
2023-09-22T14:45:37.449Z,99941.09
2023-09-22T14:48:07.303Z,99943.88
2023-09-22T14:50:35.543Z,99951.44
2023-09-22T14:53:05.276Z,99948.50
2023-09-22T14:55:33.873Z,99952.38
2023-09-22T14:58:02.323Z,99956.47
2023-09-22T15:00:31.002Z,99954.09
2023-09-22T15:03:00.182Z,99944.50
2023-09-22T15:05:28.238Z,99940.34
2023-09-22T15:08:03.871Z,99952.09
2023-09-22T15:10:33.574Z,99967.66
2023-09-22T15:13:02.830Z,99969.69
2023-09-22T15:15:32.957Z,99966.72
2023-09-22T15:18:01.694Z,99989.72
2023-09-22T15:20:29.814Z,99976.53
2023-09-22T15:22:57.890Z,99960.94
2023-09-22T15:25:25.905Z,99962.66
2023-09-22T15:27:55.813Z,99950.25
2023-09-22T15:30:24.667Z,99963.34
2023-09-22T15:32:52.984Z,99971.22
2023-09-22T15:35:21.460Z,99967.97
2023-09-22T15:37:49.657Z,99968.69
2023-09-22T15:40:18.198Z,99968.16
2023-09-22T15:42:46.253Z,99965.19
2023-09-22T15:45:16.085Z,99965.31
2023-09-22T15:47:46.208Z,99965.06
2023-09-22T15:50:19.177Z,99963.03
2023-09-22T15:52:49.769Z,99957.56
2023-09-22T15:55:21.912Z,99953.28
2023-09-22T15:57:50.267Z,99948.34
2023-09-22T16:00:20.196Z,99951.50
2023-09-22T16:02:50.296Z,99958.47
2023-09-22T16:05:18.955Z,99963.34
2023-09-22T16:07:47.125Z,99961.94
2023-09-22T16:10:15.277Z,99973.59
2023-09-22T16:12:43.318Z,99979.91
2023-09-22T16:15:14.096Z,99978.06
2023-09-22T16:17:43.550Z,99976.00
2023-09-22T16:20:12.797Z,99988.00
2023-09-22T16:22:40.874Z,99998.03
2023-09-22T16:25:12.386Z,99996.44
2023-09-22T16:27:41.491Z,99992.63
2023-09-22T16:30:11.211Z,99990.72
2023-09-22T16:32:39.258Z,100010.56
2023-09-22T16:35:09.991Z,100022.63
2023-09-22T16:37:38.064Z,100020.53
2023-09-22T16:40:07.359Z,100006.38
2023-09-22T16:42:35.328Z,100001.59
2023-09-22T16:45:03.910Z,99997.44
2023-09-22T16:47:32.217Z,100003.59
2023-09-22T16:50:00.735Z,100004.78
2023-09-22T16:52:30.207Z,99989.25
2023-09-22T16:54:58.469Z,99974.94
2023-09-22T16:57:26.598Z,99981.88
2023-09-22T16:59:55.010Z,100000.22
2023-09-22T17:02:23.664Z,100017.94
2023-09-22T17:04:52.236Z,100017.63
2023-09-22T17:07:20.390Z,100030.41
2023-09-22T17:09:49.989Z,100029.66
2023-09-22T17:12:18.101Z,100031.75
2023-09-22T17:14:46.746Z,100029.38
2023-09-22T17:17:15.205Z,100036.72
2023-09-22T17:19:43.866Z,100032.50
2023-09-22T17:22:12.387Z,100021.97
2023-09-22T17:24:40.484Z,100039.94
2023-09-22T17:27:13.938Z,100051.00
2023-09-22T17:29:46.822Z,100060.56
2023-09-22T17:32:15.630Z,100057.94
2023-09-22T17:34:46.713Z,100065.56
2023-09-22T17:37:14.865Z,100064.09
2023-09-22T17:39:43.134Z,100060.19
2023-09-22T17:42:12.621Z,100055.34
2023-09-22T17:44:40.858Z,100048.81
2023-09-22T17:47:09.070Z,100044.41
2023-09-22T17:49:37.187Z,100051.41
2023-09-22T17:52:05.715Z,100058.88
2023-09-22T17:54:33.877Z,100071.41
2023-09-22T17:57:03.742Z,100070.38
2023-09-22T17:59:33.717Z,100075.53
2023-09-22T18:02:02.019Z,100084.44
2023-09-22T18:04:31.837Z,100068.59
2023-09-22T18:07:00.676Z,100071.22
2023-09-22T18:09:30.508Z,100077.09
2023-09-22T18:11:58.618Z,100086.31
2023-09-22T18:14:27.105Z,100083.00
2023-09-22T18:16:58.188Z,100063.53
2023-09-22T18:19:26.639Z,100065.09
2023-09-22T18:21:54.881Z,100059.25
2023-09-22T18:24:24.044Z,100069.00
2023-09-22T18:26:52.206Z,100059.47
2023-09-22T18:29:21.425Z,100059.16
2023-09-22T18:31:50.082Z,100069.22
2023-09-22T18:34:19.731Z,100069.09
2023-09-22T18:36:47.778Z,100071.94
2023-09-22T18:39:15.905Z,100087.03
2023-09-22T18:41:45.150Z,100096.00
2023-09-22T18:44:13.212Z,100107.63
2023-09-22T18:46:41.231Z,100102.63
2023-09-22T18:49:10.056Z,100103.78
2023-09-22T18:51:39.887Z,100102.28
2023-09-22T18:54:07.977Z,100088.00
2023-09-22T18:56:36.782Z,100092.13
2023-09-22T18:59:04.908Z,100097.97
2023-09-22T19:01:33.166Z,100095.25
2023-09-22T19:04:01.500Z,100095.81
2023-09-22T19:06:29.822Z,100079.81
2023-09-22T19:08:59.332Z,100075.75
2023-09-22T19:11:27.386Z,100077.81
2023-09-22T19:13:55.313Z,100083.28
2023-09-22T19:16:24.722Z,100071.59
2023-09-22T19:18:53.177Z,100064.84
2023-09-22T19:21:26.967Z,100065.81
2023-09-22T19:23:55.339Z,100067.75
2023-09-22T19:26:24.811Z,100081.16
2023-09-22T19:28:52.964Z,100073.34
2023-09-22T19:31:22.336Z,100064.22
2023-09-22T19:33:50.575Z,100056.16
2023-09-22T19:36:18.961Z,100061.13
2023-09-22T19:38:47.351Z,100050.81
2023-09-22T19:41:16.632Z,100042.59
2023-09-22T19:43:47.124Z,100056.56
2023-09-22T19:46:18.664Z,100067.53
2023-09-22T19:48:47.172Z,100076.69
2023-09-22T19:51:16.214Z,100062.44
2023-09-22T19:53:44.928Z,100069.78
2023-09-22T19:56:12.979Z,100077.81
2023-09-22T19:58:41.074Z,100077.06
2023-09-22T20:01:11.755Z,100086.38
2023-09-22T20:03:42.004Z,100058.78
2023-09-22T20:06:10.799Z,100051.56
2023-09-22T20:08:39.652Z,100051.81
2023-09-22T20:11:07.752Z,100042.56
2023-09-22T20:13:36.167Z,100050.59
2023-09-22T20:16:05.403Z,100069.66
2023-09-22T20:18:35.418Z,100067.84
2023-09-22T20:21:05.929Z,100067.50
2023-09-22T20:23:35.977Z,100068.13
2023-09-22T20:26:06.779Z,100066.00
2023-09-22T20:28:35.931Z,100073.81
2023-09-22T20:31:06.404Z,100087.72
2023-09-22T20:33:36.510Z,100088.56
2023-09-22T20:36:05.554Z,100095.84
2023-09-22T20:38:33.905Z,100097.53
2023-09-22T20:41:03.866Z,100097.03
2023-09-22T20:43:36.486Z,100102.31
2023-09-22T20:46:07.371Z,100100.41
2023-09-22T20:48:37.317Z,100104.81
2023-09-22T20:51:09.311Z,100092.63
2023-09-22T20:53:38.828Z,100091.91
2023-09-22T20:56:11.682Z,100081.88
2023-09-22T20:58:40.250Z,100086.38
2023-09-22T21:01:08.390Z,100088.97
2023-09-22T21:03:37.903Z,100101.31
2023-09-22T21:06:06.134Z,100113.88
2023-09-22T21:08:34.208Z,100117.75
2023-09-22T21:11:02.710Z,100108.78
2023-09-22T21:13:31.041Z,100103.00
2023-09-22T21:15:59.570Z,100096.34
2023-09-22T21:18:28.351Z,100099.19
2023-09-22T21:21:03.525Z,100099.19
2023-09-22T21:23:31.663Z,100107.13
2023-09-22T21:25:59.942Z,100112.06
2023-09-22T21:28:27.962Z,100109.78
2023-09-22T21:30:57.946Z,100103.94
2023-09-22T21:33:26.157Z,100114.25
2023-09-22T21:35:54.446Z,100112.72
2023-09-22T21:38:23.877Z,100111.06
2023-09-22T21:40:52.869Z,100122.75
2023-09-22T21:43:22.270Z,100114.44
2023-09-22T21:45:50.415Z,100116.84
2023-09-22T21:48:18.874Z,100121.53
2023-09-22T21:50:46.964Z,100113.59
2023-09-22T21:53:14.956Z,100111.91
2023-09-22T21:55:45.683Z,100105.47
2023-09-22T21:58:13.732Z,100116.78
2023-09-22T22:00:43.490Z,100104.13
2023-09-22T22:03:11.947Z,100100.84
2023-09-22T22:05:40.956Z,100116.06
2023-09-22T22:08:18.539Z,100114.75
2023-09-22T22:10:49.877Z,100107.16
2023-09-22T22:13:21.489Z,100097.84
2023-09-22T22:15:50.127Z,100099.09
2023-09-22T22:18:18.430Z,100104.78
2023-09-22T22:20:47.067Z,100095.28
2023-09-22T22:23:16.315Z,100083.03
2023-09-22T22:25:46.926Z,100091.91
2023-09-22T22:28:17.248Z,100096.69
2023-09-22T22:30:45.767Z,100105.81
2023-09-22T22:33:15.759Z,100107.13
2023-09-22T22:35:43.970Z,100110.06
2023-09-22T22:38:12.137Z,100108.13
2023-09-22T22:40:40.640Z,100111.47
2023-09-22T22:43:09.348Z,100115.34
2023-09-22T22:45:40.444Z,100116.09
2023-09-22T22:48:09.950Z,100114.44
2023-09-22T22:50:38.638Z,100123.97
2023-09-22T22:53:07.551Z,100112.13
2023-09-22T22:55:37.077Z,100112.63
2023-09-22T22:58:09.910Z,100118.44
2023-09-22T23:00:49.672Z,100125.38
2023-09-22T23:03:18.273Z,100120.91
2023-09-22T23:05:46.451Z,100119.56
2023-09-22T23:08:17.201Z,100117.06
2023-09-22T23:10:56.642Z,100112.09
2023-09-22T23:13:33.995Z,100115.28
2023-09-22T23:16:05.900Z,100121.91
2023-09-22T23:18:36.092Z,100113.09
2023-09-22T23:21:05.920Z,100124.22
2023-09-22T23:23:34.817Z,100123.38
2023-09-22T23:26:06.649Z,100125.66
2023-09-22T23:28:37.059Z,100126.31
2023-09-22T23:31:07.114Z,100129.53
2023-09-22T23:33:35.873Z,100125.53
2023-09-22T23:36:06.147Z,100121.69
2023-09-22T23:38:34.811Z,100118.44
2023-09-22T23:41:08.248Z,100133.69
2023-09-22T23:43:37.146Z,100132.50
2023-09-22T23:46:08.328Z,100135.97
2023-09-22T23:48:39.403Z,100130.34
2023-09-22T23:51:09.314Z,100133.16
2023-09-22T23:53:38.002Z,100135.47
2023-09-22T23:56:06.315Z,100133.63
2023-09-22T23:58:35.025Z,100137.97
